createdAt,value
2022-10-16T00:02:23.623Z,2.17
2022-10-16T00:04:51.271Z,1.92
2022-10-16T00:07:18.915Z,1.87
2022-10-16T00:09:47.962Z,2.05
2022-10-16T00:12:15.549Z,2.00
2022-10-16T00:14:45.062Z,2.00
2022-10-16T00:17:12.658Z,2.10
2022-10-16T00:19:40.331Z,2.17
2022-10-16T00:22:07.951Z,2.22
2022-10-16T00:24:35.565Z,1.80
2022-10-16T00:27:04.717Z,2.00
2022-10-16T00:29:32.343Z,2.10
2022-10-16T00:31:59.990Z,2.10
2022-10-16T00:34:27.650Z,2.10
2022-10-16T00:36:55.291Z,2.15
2022-10-16T00:39:23.267Z,1.88
2022-10-16T00:41:50.901Z,2.13
2022-10-16T00:44:45.870Z,2.05
2022-10-16T00:47:15.572Z,1.95
2022-10-16T00:49:43.389Z,1.88
2022-10-16T00:52:12.067Z,1.80
2022-10-16T00:54:39.715Z,1.60
2022-10-16T00:57:08.293Z,1.45
2022-10-16T00:59:38.664Z,1.85
2022-10-16T01:02:10.334Z,1.63
2022-10-16T01:04:40.588Z,1.65
2022-10-16T01:07:14.832Z,2.10
2022-10-16T01:09:51.369Z,1.83
2022-10-16T01:12:24.514Z,1.85
2022-10-16T01:14:56.799Z,2.33
2022-10-16T01:17:33.340Z,2.20
2022-10-16T01:20:07.447Z,1.95
2022-10-16T01:22:40.964Z,2.40
2022-10-16T01:25:14.167Z,1.98
2022-10-16T01:27:44.601Z,2.08
2022-10-16T01:30:15.594Z,2.50
2022-10-16T01:32:44.546Z,2.20
2022-10-16T01:35:14.332Z,2.35
2022-10-16T01:37:49.022Z,2.60
2022-10-16T01:40:18.628Z,2.40
2022-10-16T01:42:50.842Z,2.25
2022-10-16T01:45:21.105Z,2.78
2022-10-16T01:47:49.942Z,2.63
2022-10-16T01:50:19.582Z,2.88
2022-10-16T01:52:49.204Z,2.95
2022-10-16T01:55:20.821Z,2.80
2022-10-16T01:57:51.614Z,3.15
2022-10-16T02:00:21.272Z,2.90
2022-10-16T02:02:51.732Z,2.85
2022-10-16T02:05:24.458Z,3.33
2022-10-16T02:07:52.138Z,3.67
2022-10-16T02:10:20.426Z,3.00
2022-10-16T02:12:52.219Z,3.60
2022-10-16T02:15:19.981Z,3.22
2022-10-16T02:17:47.598Z,3.22
2022-10-16T02:20:15.290Z,3.40
2022-10-16T02:22:46.230Z,3.40
2022-10-16T02:25:18.820Z,3.72
2022-10-16T02:27:52.696Z,3.55
2022-10-16T02:30:24.146Z,4.00
2022-10-16T02:32:52.434Z,3.83
2022-10-16T02:35:22.520Z,3.40
2022-10-16T02:37:51.311Z,3.40
2022-10-16T02:40:22.850Z,3.20
2022-10-16T02:42:55.497Z,3.40
2022-10-16T02:45:23.520Z,3.53
2022-10-16T02:47:51.196Z,3.45
2022-10-16T02:50:19.025Z,3.70
2022-10-16T02:52:46.663Z,3.30
2022-10-16T02:55:14.298Z,3.67
2022-10-16T02:57:42.298Z,3.38
2022-10-16T03:00:15.121Z,3.40
2022-10-16T03:02:43.006Z,3.63
2022-10-16T03:05:11.437Z,3.03
2022-10-16T03:07:39.096Z,3.25
2022-10-16T03:10:07.517Z,2.70
2022-10-16T03:12:35.191Z,3.42
2022-10-16T03:15:02.891Z,3.63
2022-10-16T03:17:32.213Z,2.75
2022-10-16T03:19:59.929Z,3.25
2022-10-16T03:22:27.572Z,3.10
2022-10-16T03:24:55.469Z,2.50
2022-10-16T03:27:23.257Z,2.87
2022-10-16T03:29:51.042Z,3.00
2022-10-16T03:32:19.398Z,2.60
2022-10-16T03:34:48.423Z,2.88
2022-10-16T03:37:16.035Z,2.28
2022-10-16T03:39:43.676Z,2.40
2022-10-16T03:42:11.298Z,2.30
2022-10-16T03:44:38.924Z,2.03
2022-10-16T03:47:06.592Z,2.50
2022-10-16T03:49:34.218Z,2.35
2022-10-16T03:52:03.245Z,2.25
2022-10-16T03:54:30.840Z,2.35
2022-10-16T03:56:58.465Z,2.30
2022-10-16T03:59:26.054Z,2.10
2022-10-16T04:01:53.724Z,1.80
2022-10-16T04:04:21.334Z,2.03
2022-10-16T04:06:48.912Z,2.10
2022-10-16T04:09:17.960Z,2.00
2022-10-16T04:11:45.532Z,1.77
2022-10-16T04:14:13.164Z,1.90
2022-10-16T04:16:40.783Z,1.92
2022-10-16T04:19:08.465Z,2.00
2022-10-16T04:21:36.188Z,2.13
2022-10-16T04:24:03.861Z,1.85
2022-10-16T04:26:32.882Z,1.90
2022-10-16T04:29:00.599Z,2.35
2022-10-16T04:31:28.616Z,1.90
2022-10-16T04:33:56.210Z,2.00
2022-10-16T04:36:26.771Z,1.80
2022-10-16T04:38:56.850Z,2.13
2022-10-16T04:41:24.488Z,1.95
2022-10-16T04:43:53.433Z,2.33
2022-10-16T04:46:21.089Z,2.20
2022-10-16T04:48:48.730Z,1.95
2022-10-16T04:51:16.430Z,1.98
2022-10-16T04:53:44.092Z,1.90
2022-10-16T04:56:11.736Z,2.10
2022-10-16T04:58:39.347Z,2.25
2022-10-16T05:01:08.372Z,2.30
2022-10-16T05:03:36.065Z,2.30
2022-10-16T05:06:05.030Z,2.37
2022-10-16T05:08:32.622Z,2.33
2022-10-16T05:11:00.588Z,2.42
2022-10-16T05:13:28.224Z,1.93
2022-10-16T05:15:55.836Z,2.30
2022-10-16T05:18:24.841Z,2.28
2022-10-16T05:20:52.489Z,1.73
2022-10-16T05:23:20.116Z,1.90
2022-10-16T05:25:54.491Z,1.80
2022-10-16T05:28:22.129Z,1.95
2022-10-16T05:30:49.772Z,1.95
2022-10-16T05:33:17.905Z,2.00
2022-10-16T05:35:47.469Z,1.60
2022-10-16T05:38:15.248Z,2.00
2022-10-16T05:40:42.913Z,2.05
2022-10-16T05:43:10.634Z,1.77
2022-10-16T05:45:38.253Z,2.00
2022-10-16T05:48:06.530Z,1.83
2022-10-16T05:50:34.223Z,1.90
2022-10-16T05:53:03.252Z,1.90
2022-10-16T05:55:30.883Z,1.60
2022-10-16T05:57:58.450Z,2.15
2022-10-16T06:00:26.051Z,1.85
2022-10-16T06:02:53.802Z,1.70
2022-10-16T06:05:21.446Z,1.70
2022-10-16T06:07:48.988Z,1.88
2022-10-16T06:10:18.304Z,1.80
2022-10-16T06:12:45.908Z,1.70
2022-10-16T06:15:13.524Z,2.05
2022-10-16T06:17:41.160Z,1.70
2022-10-16T06:20:09.295Z,2.13
2022-10-16T06:22:37.535Z,1.80
2022-10-16T06:25:06.412Z,1.92
2022-10-16T06:27:35.448Z,2.73
2022-10-16T06:30:04.746Z,2.80
2022-10-16T06:32:32.426Z,2.80
2022-10-16T06:35:00.120Z,1.70
2022-10-16T06:37:29.167Z,1.83
2022-10-16T06:39:56.967Z,2.20
2022-10-16T06:42:24.920Z,2.38
2022-10-16T06:44:54.349Z,2.03
2022-10-16T06:47:21.961Z,2.00
2022-10-16T06:49:53.434Z,2.10
2022-10-16T06:52:22.094Z,2.40
2022-10-16T06:54:49.737Z,3.00
2022-10-16T06:57:17.635Z,2.35
2022-10-16T06:59:47.064Z,2.35
2022-10-16T07:02:16.392Z,2.10
2022-10-16T07:04:44.001Z,2.13
2022-10-16T07:07:11.592Z,1.90
2022-10-16T07:09:39.244Z,2.00
2022-10-16T07:12:06.939Z,1.83
2022-10-16T07:14:34.610Z,2.00
2022-10-16T07:17:02.361Z,1.70
2022-10-16T07:19:34.248Z,2.27
2022-10-16T07:22:02.528Z,1.90
2022-10-16T07:24:30.199Z,2.08
2022-10-16T07:26:57.838Z,2.22
2022-10-16T07:29:25.467Z,1.83
2022-10-16T07:31:53.179Z,1.77
2022-10-16T07:34:22.557Z,1.92
2022-10-16T07:36:51.926Z,1.80
2022-10-16T07:39:19.862Z,1.83
2022-10-16T07:41:47.500Z,2.00
2022-10-16T07:44:15.440Z,2.08
2022-10-16T07:46:43.080Z,2.00
2022-10-16T07:49:11.332Z,1.70
2022-10-16T07:51:40.277Z,1.88
2022-10-16T07:54:10.403Z,1.95
2022-10-16T07:56:39.972Z,1.50
2022-10-16T07:59:10.743Z,1.85
2022-10-16T08:01:38.593Z,1.77
2022-10-16T08:04:07.366Z,2.05
2022-10-16T08:06:37.894Z,1.80
2022-10-16T08:09:05.751Z,2.05
2022-10-16T08:11:35.196Z,1.80
2022-10-16T08:14:02.910Z,2.03
2022-10-16T08:16:30.638Z,2.05
2022-10-16T08:18:58.331Z,1.70
2022-10-16T08:21:26.017Z,1.42
2022-10-16T08:23:58.139Z,1.60
2022-10-16T08:26:27.083Z,1.80
2022-10-16T08:28:57.085Z,1.70
2022-10-16T08:31:25.094Z,1.80
2022-10-16T08:33:53.382Z,1.75
2022-10-16T08:36:21.180Z,1.40
2022-10-16T08:38:50.817Z,1.60
2022-10-16T08:41:34.780Z,1.50
2022-10-16T08:44:16.242Z,2.50
2022-10-16T08:46:50.571Z,1.95
2022-10-16T08:49:18.911Z,1.70
2022-10-16T08:51:47.497Z,1.95
2022-10-16T08:54:25.025Z,1.70
2022-10-16T08:56:52.688Z,1.90
2022-10-16T08:59:21.830Z,1.97
2022-10-16T09:01:52.204Z,2.00
2022-10-16T09:04:44.275Z,1.77
2022-10-16T09:07:17.364Z,1.77
2022-10-16T09:09:58.598Z,1.90
2022-10-16T09:12:31.296Z,2.10
2022-10-16T09:15:05.462Z,1.60
2022-10-16T09:17:40.304Z,1.67
2022-10-16T09:20:29.615Z,2.10
2022-10-16T09:23:10.119Z,1.85
2022-10-16T09:25:41.102Z,3.03
2022-10-16T09:28:10.905Z,2.35
2022-10-16T09:30:40.516Z,1.60
2022-10-16T09:33:09.162Z,1.92
2022-10-16T09:35:39.802Z,1.67
2022-10-16T09:38:07.860Z,1.38
2022-10-16T09:40:37.752Z,1.63
2022-10-16T09:43:17.146Z,1.70
2022-10-16T09:45:56.227Z,1.48
2022-10-16T09:48:24.450Z,1.27
2022-10-16T09:50:59.857Z,1.43
2022-10-16T09:53:38.303Z,1.50
2022-10-16T09:56:10.359Z,1.77
2022-10-16T09:58:44.419Z,1.50
2022-10-16T10:01:15.341Z,1.73
2022-10-16T10:03:44.575Z,1.38
2022-10-16T10:06:21.460Z,1.63
2022-10-16T10:08:57.423Z,1.65
2022-10-16T10:11:56.029Z,1.70
2022-10-16T10:14:26.485Z,1.75
2022-10-16T10:17:08.952Z,1.83
2022-10-16T10:19:40.915Z,1.58
2022-10-16T10:22:18.345Z,1.52
2022-10-16T10:24:46.518Z,1.58
2022-10-16T10:27:17.896Z,1.40
2022-10-16T10:29:50.972Z,1.52
2022-10-16T10:32:26.392Z,1.35
2022-10-16T10:35:02.995Z,1.30
2022-10-16T10:37:43.136Z,1.30
2022-10-16T10:40:18.879Z,1.30
2022-10-16T10:42:50.335Z,1.40
2022-10-16T10:45:28.356Z,1.33
2022-10-16T10:48:12.571Z,1.58
2022-10-16T10:50:43.825Z,1.30
2022-10-16T10:53:20.882Z,1.00
2022-10-16T10:55:54.413Z,0.98
2022-10-16T10:58:35.110Z,1.00
2022-10-16T11:01:06.856Z,1.13
2022-10-16T11:03:47.291Z,1.20
2022-10-16T11:06:17.454Z,0.95
2022-10-16T11:08:48.771Z,0.95
2022-10-16T11:11:19.570Z,1.23
2022-10-16T11:13:54.131Z,1.08
2022-10-16T11:16:25.070Z,0.90
2022-10-16T11:19:00.031Z,0.80
2022-10-16T11:21:31.157Z,0.95
2022-10-16T11:24:02.271Z,0.80
2022-10-16T11:26:33.795Z,0.98
2022-10-16T11:29:02.545Z,1.27
2022-10-16T11:31:34.461Z,0.75
2022-10-16T11:34:08.333Z,1.20
2022-10-16T11:36:40.568Z,1.17
2022-10-16T11:39:17.537Z,0.90
2022-10-16T11:41:48.897Z,0.98
2022-10-16T11:44:36.888Z,1.02
2022-10-16T11:47:33.673Z,0.73
2022-10-16T11:50:05.134Z,1.27
2022-10-16T11:52:37.789Z,0.90
2022-10-16T11:55:08.520Z,0.60
2022-10-16T11:57:40.471Z,0.88
2022-10-16T12:00:12.009Z,0.70
2022-10-16T12:02:50.545Z,0.95
2022-10-16T12:05:27.022Z,0.82
2022-10-16T12:08:04.633Z,0.82
2022-10-16T12:13:32.134Z,0.80
2022-10-16T12:16:07.761Z,1.07
2022-10-16T12:18:35.467Z,1.00
2022-10-16T12:21:07.549Z,0.80
2022-10-16T12:23:35.605Z,0.88
2022-10-16T12:26:03.721Z,0.75
2022-10-16T12:28:33.693Z,1.10
2022-10-16T12:31:02.765Z,1.10
2022-10-16T12:33:31.963Z,1.10
2022-10-16T12:36:00.974Z,0.68
2022-10-16T12:38:32.640Z,0.60
2022-10-16T12:41:02.297Z,0.77
2022-10-16T12:43:43.239Z,0.90
2022-10-16T12:46:37.698Z,1.20
2022-10-16T12:49:25.499Z,0.77
2022-10-16T12:51:53.477Z,0.90
2022-10-16T12:54:26.720Z,0.80
2022-10-16T12:57:04.210Z,1.15
2022-10-16T12:59:37.693Z,1.20
2022-10-16T13:02:20.262Z,0.90
2022-10-16T13:05:15.242Z,0.80
2022-10-16T13:07:51.508Z,1.10
2022-10-16T13:10:25.655Z,0.73
2022-10-16T13:13:22.742Z,0.80
2022-10-16T13:16:00.944Z,1.07
2022-10-16T13:18:32.973Z,0.63
2022-10-16T13:21:13.497Z,0.75
2022-10-16T13:26:24.272Z,0.50
2022-10-16T13:28:52.017Z,0.90
2022-10-16T13:31:22.105Z,0.85
2022-10-16T13:33:53.696Z,1.10
2022-10-16T13:36:23.505Z,0.88
2022-10-16T13:38:51.152Z,0.63
2022-10-16T13:41:21.263Z,0.73
2022-10-16T13:43:50.988Z,0.60
2022-10-16T13:46:20.923Z,0.55
2022-10-16T13:48:58.837Z,0.85
2022-10-16T13:51:27.075Z,0.60
2022-10-16T13:53:54.817Z,0.80
2022-10-16T13:56:25.287Z,0.95
2022-10-16T13:59:00.926Z,1.00
2022-10-16T14:01:32.671Z,1.37
2022-10-16T14:04:06.140Z,1.03
2022-10-16T14:06:34.722Z,0.75
2022-10-16T14:09:04.551Z,0.60
2022-10-16T14:11:34.078Z,0.90
2022-10-16T14:14:03.527Z,0.57
2022-10-16T14:16:32.358Z,0.97
2022-10-16T14:19:02.386Z,1.00
2022-10-16T14:21:30.541Z,0.98
2022-10-16T14:23:58.492Z,0.82
2022-10-16T14:26:28.135Z,0.80
2022-10-16T14:29:13.817Z,1.17
2022-10-16T14:31:41.738Z,0.73
2022-10-16T14:34:26.443Z,1.02
2022-10-16T14:36:54.116Z,0.70
2022-10-16T14:39:23.171Z,0.90
2022-10-16T14:41:52.535Z,1.55
2022-10-16T14:44:24.620Z,0.87
2022-10-16T14:46:52.213Z,1.00
2022-10-16T14:49:21.316Z,0.93
2022-10-16T14:51:49.141Z,0.90
2022-10-16T14:54:18.505Z,0.75
2022-10-16T14:56:49.907Z,0.93
2022-10-16T14:59:30.168Z,1.00
2022-10-16T15:01:58.206Z,0.80
2022-10-16T15:04:25.954Z,1.48
2022-10-16T15:06:53.596Z,3.75
2022-10-16T15:09:21.258Z,2.30
2022-10-16T15:11:48.914Z,2.10
2022-10-16T15:14:16.573Z,3.87
2022-10-16T15:16:46.820Z,3.10
2022-10-16T15:19:14.433Z,2.03
2022-10-16T15:21:42.119Z,1.48
2022-10-16T15:24:11.749Z,1.38
2022-10-16T15:26:39.416Z,1.17
2022-10-16T15:29:07.133Z,1.10
2022-10-16T15:31:34.864Z,1.38
2022-10-16T15:34:05.239Z,1.10
2022-10-16T15:36:34.863Z,0.93
2022-10-16T15:39:02.514Z,0.80
2022-10-16T15:41:30.273Z,1.00
2022-10-16T15:43:58.124Z,0.73
2022-10-16T15:46:26.588Z,1.10
2022-10-16T15:48:58.694Z,0.93
2022-10-16T15:51:30.223Z,1.23
2022-10-16T15:53:57.973Z,1.30
2022-10-16T15:56:26.489Z,1.65
2022-10-16T15:58:54.737Z,1.50
2022-10-16T16:01:22.676Z,1.20
2022-10-16T16:03:54.985Z,1.40
2022-10-16T16:06:23.802Z,1.88
2022-10-16T16:08:52.878Z,1.50
2022-10-16T16:11:21.174Z,1.30
2022-10-16T16:13:48.791Z,1.90
2022-10-16T16:16:17.731Z,3.00
2022-10-16T16:18:45.941Z,3.28
2022-10-16T16:21:14.527Z,4.07
2022-10-16T16:23:42.143Z,4.32
2022-10-16T16:26:13.594Z,4.35
2022-10-16T16:28:42.193Z,4.82
2022-10-16T16:31:10.372Z,4.00
2022-10-16T16:33:38.035Z,3.75
2022-10-16T16:36:11.550Z,4.35
2022-10-16T16:38:42.317Z,4.90
2022-10-16T16:41:15.278Z,4.50
2022-10-16T16:43:43.509Z,4.90
2022-10-16T16:46:11.637Z,5.28
2022-10-16T16:48:39.329Z,5.35
2022-10-16T16:51:07.156Z,6.22
2022-10-16T16:53:35.495Z,6.07
2022-10-16T16:56:04.891Z,6.65
2022-10-16T16:58:34.392Z,7.25
2022-10-16T17:01:19.413Z,7.13
2022-10-16T17:03:50.655Z,7.10
2022-10-16T17:06:20.750Z,6.78
2022-10-16T17:08:49.239Z,6.80
2022-10-16T17:11:18.611Z,7.00
2022-10-16T17:13:49.954Z,6.83
2022-10-16T17:16:20.875Z,6.07
2022-10-16T17:18:48.485Z,6.53
2022-10-16T17:21:17.451Z,6.80
2022-10-16T17:23:45.057Z,14.45
2022-10-16T17:26:14.421Z,15.80
2022-10-16T17:28:42.568Z,14.90
2022-10-16T17:31:13.565Z,12.32
2022-10-16T17:33:41.437Z,12.98
2022-10-16T17:36:10.012Z,11.73
2022-10-16T17:38:37.716Z,13.93
2022-10-16T17:41:13.079Z,16.30
2022-10-16T17:43:40.767Z,13.52
2022-10-16T17:46:08.469Z,12.35
2022-10-16T17:48:40.093Z,9.43
2022-10-16T17:51:08.573Z,9.23
2022-10-16T17:53:36.603Z,9.23
2022-10-16T17:56:05.675Z,8.40
2022-10-16T17:58:33.738Z,9.25
2022-10-16T18:01:01.638Z,8.48
2022-10-16T18:03:29.416Z,8.10
2022-10-16T18:05:58.477Z,7.90
2022-10-16T18:08:28.697Z,7.07
2022-10-16T18:10:56.843Z,7.27
2022-10-16T18:13:24.572Z,6.80
2022-10-16T18:16:00.646Z,11.85
2022-10-16T18:18:29.706Z,11.67
2022-10-16T18:20:59.801Z,11.52
2022-10-16T18:23:28.080Z,11.88
2022-10-16T18:25:56.196Z,13.93
2022-10-16T18:28:24.102Z,11.10
2022-10-16T18:30:58.192Z,8.85
2022-10-16T18:33:26.306Z,9.02
2022-10-16T18:35:54.131Z,8.00
2022-10-16T18:38:23.559Z,6.57
2022-10-16T18:40:51.174Z,10.55
2022-10-16T18:43:18.870Z,14.80
2022-10-16T18:45:56.637Z,14.05
2022-10-16T18:48:24.412Z,13.77
2022-10-16T18:50:52.357Z,13.60
2022-10-16T18:53:20.477Z,12.55
2022-10-16T18:55:54.078Z,11.20
2022-10-16T18:58:21.740Z,11.30
2022-10-16T19:00:49.371Z,10.38
2022-10-16T19:03:18.483Z,11.68
2022-10-16T19:05:46.831Z,10.48
2022-10-16T19:08:14.826Z,11.07
2022-10-16T19:10:42.595Z,13.95
2022-10-16T19:13:11.630Z,13.48
2022-10-16T19:15:49.699Z,13.80
2022-10-16T19:18:27.032Z,14.77
2022-10-16T19:20:54.931Z,14.63
2022-10-16T19:23:22.925Z,13.90
2022-10-16T19:25:50.679Z,13.80
2022-10-16T19:28:19.823Z,12.55
2022-10-16T19:30:48.462Z,12.32
2022-10-16T19:33:16.076Z,12.00
2022-10-16T19:35:43.675Z,11.00
2022-10-16T19:38:11.356Z,11.02
2022-10-16T19:40:39.033Z,11.85
2022-10-16T19:43:06.710Z,11.68
2022-10-16T19:45:36.153Z,12.57
2022-10-16T19:48:04.050Z,12.30
2022-10-16T19:50:31.677Z,12.70
2022-10-16T19:52:59.297Z,14.40
2022-10-16T19:55:26.890Z,14.00
2022-10-16T19:57:54.500Z,14.90
2022-10-16T20:00:22.147Z,15.15
2022-10-16T20:02:51.103Z,16.42
2022-10-16T20:05:18.739Z,17.17
2022-10-16T20:07:46.326Z,13.25
2022-10-16T20:10:14.242Z,11.50
2022-10-16T20:12:42.726Z,11.70
2022-10-16T20:15:11.275Z,11.52
2022-10-16T20:17:38.920Z,11.77
2022-10-16T20:20:08.873Z,11.85
2022-10-16T20:22:36.496Z,11.53
2022-10-16T20:25:08.447Z,9.38
2022-10-16T20:27:37.808Z,8.82
2022-10-16T20:30:05.958Z,7.82
2022-10-16T20:32:33.561Z,7.30
2022-10-16T20:35:04.302Z,7.10
2022-10-16T20:37:36.130Z,6.80
2022-10-16T20:40:03.767Z,6.85
2022-10-16T20:42:31.381Z,7.15
2022-10-16T20:44:58.981Z,7.03
2022-10-16T20:47:26.810Z,7.20
2022-10-16T20:49:54.627Z,7.00
2022-10-16T20:52:22.234Z,7.25
2022-10-16T20:54:51.328Z,7.13
2022-10-16T20:57:18.965Z,6.88
2022-10-16T20:59:46.922Z,6.73
2022-10-16T21:02:14.723Z,7.10
2022-10-16T21:04:42.473Z,5.70
2022-10-16T21:07:10.796Z,6.53
2022-10-16T21:09:38.937Z,6.73
2022-10-16T21:12:08.003Z,6.88
2022-10-16T21:14:42.293Z,7.30
2022-10-16T21:17:14.012Z,7.03
2022-10-16T21:19:41.567Z,7.20
2022-10-16T21:22:09.384Z,7.18
2022-10-16T21:24:37.711Z,6.38
2022-10-16T21:27:05.567Z,6.30
2022-10-16T21:29:34.922Z,5.77
2022-10-16T21:32:02.854Z,5.10
2022-10-16T21:34:30.471Z,4.68
2022-10-16T21:36:58.098Z,4.38
2022-10-16T21:39:25.859Z,4.40
2022-10-16T21:41:53.479Z,4.45
2022-10-16T21:44:21.197Z,4.25
2022-10-16T21:46:51.806Z,4.20
2022-10-16T21:49:20.329Z,4.10
2022-10-16T21:51:49.842Z,4.67
2022-10-16T21:54:19.401Z,5.53
2022-10-16T21:56:47.209Z,4.72
2022-10-16T21:59:15.580Z,4.47
2022-10-16T22:01:43.978Z,4.75
2022-10-16T22:04:13.700Z,4.13
2022-10-16T22:06:41.590Z,4.23
2022-10-16T22:09:09.514Z,4.25
2022-10-16T22:11:38.259Z,3.95
2022-10-16T22:14:06.806Z,4.80
2022-10-16T22:16:34.834Z,4.90
2022-10-16T22:19:06.960Z,5.07
2022-10-16T22:21:37.434Z,4.27
2022-10-16T22:24:06.058Z,4.90
2022-10-16T22:26:34.202Z,4.68
2022-10-16T22:29:01.989Z,5.03
2022-10-16T22:31:29.701Z,5.05
2022-10-16T22:33:58.293Z,4.93
2022-10-16T22:36:26.493Z,4.63
2022-10-16T22:38:55.611Z,4.15
2022-10-16T22:41:24.631Z,4.13
2022-10-16T22:43:52.661Z,4.63
2022-10-16T22:46:22.068Z,4.18
2022-10-16T22:48:49.700Z,4.05
2022-10-16T22:51:17.669Z,4.25
2022-10-16T22:53:45.662Z,3.67
2022-10-16T22:56:15.914Z,3.88
2022-10-16T22:58:44.248Z,4.40
2022-10-16T23:01:14.078Z,3.60
2022-10-16T23:03:41.723Z,3.97
2022-10-16T23:06:09.393Z,4.37
2022-10-16T23:08:37.121Z,3.97
2022-10-16T23:11:07.334Z,4.10
2022-10-16T23:13:38.995Z,3.93
2022-10-16T23:16:07.679Z,4.70
2022-10-16T23:18:35.852Z,4.67
2022-10-16T23:21:06.135Z,4.37
2022-10-16T23:23:35.607Z,5.63
2022-10-16T23:26:03.510Z,4.97
2022-10-16T23:28:32.188Z,4.70
2022-10-16T23:31:01.449Z,5.10
2022-10-16T23:33:29.069Z,4.97
2022-10-16T23:35:56.702Z,5.03
2022-10-16T23:38:24.362Z,5.13
2022-10-16T23:40:51.996Z,5.30
2022-10-16T23:43:19.630Z,5.00
2022-10-16T23:45:47.273Z,4.90
2022-10-16T23:48:16.245Z,5.60
2022-10-16T23:50:43.955Z,5.40
2022-10-16T23:53:11.635Z,5.32
2022-10-16T23:55:39.250Z,5.67
2022-10-16T23:58:06.890Z,5.70
